This is the latest recevied weather packets stored in our database for station/object IV3SCP-10. If no packets are shown the sender has not sent any weather packets the latest 10 day(s).
| Time | Temp. | Humidity | Pressure | Rain* | Wind** | Luminosity | Snow |
|---|---|---|---|---|---|---|---|
| 1788527974 | 35° C | 34% | 1016.5 hPa | - | - | - | - |
| 1788527120 | 33.89° C | 36% | 1016.7 hPa | - | - | - | - |
| 1788527074 | 33.89° C | 36% | 1016.7 hPa | - | - | - | - |
| 1788526174 | 33.89° C | 36% | 1016.8 hPa | - | - | - | - |
| 1788521673 | 33.89° C | 41% | 1017.5 hPa | - | - | - | - |
| 1788520773 | 32.78° C | 40% | 1017.5 hPa | - | - | - | - |
| 1788518973 | 36.11° C | 35% | 1017.6 hPa | - | - | - | - |
| 1788518073 | 33.89° C | 37% | 1017.7 hPa | - | - | - | - |
| 1788517173 | 33.33° C | 38% | 1017.7 hPa | - | - | - | - |
| 1788514472 | 33.33° C | 35% | 1017.9 hPa | - | - | - | - |
| 1788513572 | 33.33° C | 35% | 1017.9 hPa | - | - | - | - |
| 1788510872 | 31.11° C | 50% | 1017.9 hPa | - | - | - | - |
| 1788510009 | 30.56° C | 48% | 1018 hPa | - | - | - | - |
| 1788509971 | 30.56° C | 48% | 1018 hPa | - | - | - | - |
| 1788509071 | 31.11° C | 51% | 1017.9 hPa | - | - | - | - |
| 1788507270 | 28.33° C | 64% | 1017.9 hPa | - | - | - | - |
| 1788506427 | 27.22° C | 71% | 1017.8 hPa | - | - | - | - |
| 1788506370 | 27.22° C | 71% | 1017.8 hPa | - | - | - | - |
| 1788505505 | 26.67° C | 84% | 1017.9 hPa | - | - | - | - |
| 1788505470 | 26.67° C | 84% | 1017.9 hPa | - | - | - | - |
| 1788503670 | 24.44° C | 97% | 1017.8 hPa | - | - | - | - |
| 1788502770 | 23.33° C | 100% | 1017.7 hPa | - | - | - | - |
| 1788501870 | 22.78° C | 100% | 1017.7 hPa | - | - | - | - |
| 1788500970 | 22.78° C | 100% | 1017.7 hPa | - | - | - | - |
| 1788500070 | 21.11° C | 100% | 1017.5 hPa | - | - | - | - |
* Rain since midnight (hover to see other rain measurements)
** Current wind speed in m/s (hover to see current wind gust speed)